Saltar para o conteúdo principal

Aveiro (Universidade)

ID 1210702 · 40.6353, -8.6596 mapa

Última leitura · 2026-05-09 19:00 (Europe/Lisbon)

Temperatura
16.7 °C
Humidade
74 %
Pressão
1,006.4 hPa
Precipitação
0.0 mm
Radiação
355 W/m²
Velocidade do vento
16.2 km/h
Direcção do vento
S · Sul

Histórico de 24 horas

Hora (Europe/Lisbon) Temperatura Humidade Pressão Chuva Vento Direcção
2026-05-09 19:00 16.7 °C 74 % 1,006.4 0.0 mm 16.2 km/h S
2026-05-09 18:00 17.0 °C 73 % 1,005.6 0.0 mm 19.8 km/h SW
2026-05-09 17:00 17.8 °C 70 % 1,005.2 0.0 mm 29.2 km/h SW
2026-05-09 16:00 17.7 °C 73 % 1,004.7 0.0 mm 20.9 km/h SW
2026-05-09 15:00 16.2 °C 87 % 1,004.5 0.8 mm 12.6 km/h W
2026-05-09 14:00 15.0 °C 84 % 1,004.2 4.5 mm 4.0 km/h S
2026-05-09 13:00 18.1 °C 67 % 1,003.8 0.0 mm 14.0 km/h S
2026-05-09 12:00 17.1 °C 73 % 1,004.1 0.0 mm 15.8 km/h SE
2026-05-09 11:00 14.5 °C 89 % 1,004.3 0.1 mm 14.0 km/h SE
2026-05-09 10:00 13.6 °C 93 % 1,004.5 2.3 mm 10.4 km/h S
2026-05-09 09:00 13.1 °C 92 % 1,004.2 0.7 mm 5.0 km/h SE
2026-05-09 08:00 13.6 °C 85 % 1,004.5 4.0 mm 8.6 km/h S
2026-05-09 07:00 14.5 °C 77 % 1,003.9 0.0 mm 7.6 km/h SE
2026-05-09 06:00 14.5 °C 76 % 1,004.2 0.0 mm 11.2 km/h SE
2026-05-09 05:00 14.3 °C 75 % 1,004.6 0.0 mm 13.3 km/h SE
2026-05-09 04:00 14.0 °C 80 % 1,005.0 0.0 mm 8.3 km/h S
2026-05-09 03:00 14.3 °C 84 % 1,005.5 0.0 mm 11.2 km/h S
2026-05-09 02:00 13.7 °C 94 % 1,006.0 0.2 mm 8.3 km/h SE
2026-05-09 01:00 13.8 °C 93 % 1,006.1 0.6 mm 5.0 km/h SE
2026-05-09 00:00 14.8 °C 84 % 1,007.2 1.6 mm 11.9 km/h S
2026-05-08 23:00 16.9 °C 69 % 1,006.6 0.0 mm 10.4 km/h S
2026-05-08 22:00 17.9 °C 58 % 1,006.2 0.0 mm 5.8 km/h S
2026-05-08 21:00 18.5 °C 54 % 1,006.2 0.0 mm 4.7 km/h E
2026-05-08 20:00 19.2 °C 51 % 1,006.4 0.0 mm 5.8 km/h E